createdAt,value
2018-04-07T00:02:25.961Z,6.13
2018-04-07T00:04:53.520Z,6.05
2018-04-07T00:07:20.973Z,5.98
2018-04-07T00:09:48.494Z,5.90
2018-04-07T00:12:15.987Z,5.87
2018-04-07T00:14:43.436Z,5.86
2018-04-07T00:17:11.006Z,5.87
2018-04-07T00:19:38.495Z,5.93
2018-04-07T00:22:06.063Z,5.99
2018-04-07T00:24:33.516Z,6.00
2018-04-07T00:27:01.014Z,6.03
2018-04-07T00:29:28.470Z,6.05
2018-04-07T00:31:55.930Z,6.05
2018-04-07T00:34:23.403Z,6.00
2018-04-07T00:36:50.855Z,5.94
2018-04-07T00:39:18.328Z,5.89
2018-04-07T00:41:45.821Z,5.87
2018-04-07T00:44:13.272Z,5.83
2018-04-07T00:46:40.717Z,5.80
2018-04-07T00:49:08.178Z,5.75
2018-04-07T00:51:35.622Z,5.72
2018-04-07T00:54:03.100Z,5.71
2018-04-07T00:56:30.569Z,5.67
2018-04-07T00:58:58.025Z,5.66
2018-04-07T01:01:25.502Z,5.64
2018-04-07T01:03:52.980Z,5.61
2018-04-07T01:06:20.471Z,5.59
2018-04-07T01:08:48.028Z,5.57
2018-04-07T01:11:15.487Z,5.57
2018-04-07T01:13:42.970Z,5.55
2018-04-07T01:16:10.434Z,5.57
2018-04-07T01:21:11.656Z,5.58
2018-04-07T01:23:39.121Z,5.62
2018-04-07T01:26:06.610Z,5.63
2018-04-07T01:28:34.122Z,5.63
2018-04-07T01:31:01.590Z,5.69
2018-04-07T01:33:29.102Z,5.78
2018-04-07T01:35:56.561Z,5.80
2018-04-07T01:38:24.163Z,5.88
2018-04-07T01:40:51.660Z,5.86
2018-04-07T01:43:19.108Z,5.87
2018-04-07T01:45:46.574Z,5.85
2018-04-07T01:48:14.054Z,5.85
2018-04-07T01:50:41.518Z,5.82
2018-04-07T01:53:08.989Z,5.82
2018-04-07T01:55:36.466Z,5.78
2018-04-07T01:58:04.001Z,5.74
2018-04-07T02:00:31.468Z,5.71
2018-04-07T02:02:58.944Z,5.68
2018-04-07T02:05:26.395Z,5.63
2018-04-07T02:07:53.952Z,5.57
2018-04-07T02:10:21.405Z,5.51
2018-04-07T02:12:48.862Z,5.47
2018-04-07T02:15:16.413Z,5.43
2018-04-07T02:17:43.864Z,5.40
2018-04-07T02:20:11.324Z,5.38
2018-04-07T02:22:38.834Z,5.36
2018-04-07T02:25:06.295Z,5.32
2018-04-07T02:27:33.764Z,5.31
2018-04-07T02:30:01.247Z,5.28
2018-04-07T02:32:28.702Z,5.28
2018-04-07T02:34:56.187Z,5.29
2018-04-07T02:37:23.674Z,5.28
2018-04-07T02:39:51.201Z,5.26
2018-04-07T02:42:18.672Z,5.23
2018-04-07T02:44:46.137Z,5.22
2018-04-07T02:47:13.619Z,5.23
2018-04-07T02:49:41.099Z,5.21
2018-04-07T02:52:08.574Z,5.18
2018-04-07T02:54:36.035Z,5.16
2018-04-07T02:57:03.514Z,5.14
2018-04-07T02:59:30.972Z,5.17
2018-04-07T03:01:58.425Z,5.16
2018-04-07T03:04:25.929Z,5.16
2018-04-07T03:06:53.426Z,5.15
2018-04-07T03:09:20.888Z,5.13
2018-04-07T03:11:48.444Z,5.14
2018-04-07T03:14:15.918Z,5.12
2018-04-07T03:16:43.468Z,5.09
2018-04-07T03:19:10.922Z,5.06
2018-04-07T03:21:38.412Z,5.04
2018-04-07T03:24:05.942Z,5.04
2018-04-07T03:26:33.431Z,5.02
2018-04-07T03:29:00.895Z,5.00
2018-04-07T03:31:28.408Z,4.97
2018-04-07T03:33:55.865Z,4.93
2018-04-07T03:36:23.427Z,4.90
2018-04-07T03:38:50.912Z,4.91
2018-04-07T03:41:18.411Z,4.89
2018-04-07T03:43:46.674Z,4.89
2018-04-07T03:46:14.159Z,4.90
2018-04-07T03:48:41.630Z,4.87
2018-04-07T03:51:09.082Z,4.85
2018-04-07T03:53:36.582Z,4.85
2018-04-07T03:56:04.093Z,4.83
2018-04-07T03:58:31.666Z,4.85
2018-04-07T04:00:59.210Z,4.82
2018-04-07T04:03:26.771Z,4.84
2018-04-07T04:05:54.226Z,4.85
2018-04-07T04:08:21.711Z,4.87
2018-04-07T04:10:49.170Z,4.86
2018-04-07T04:13:16.622Z,4.85
2018-04-07T04:15:44.099Z,4.86
2018-04-07T04:18:11.723Z,4.84
2018-04-07T04:20:39.282Z,4.85
2018-04-07T04:23:06.735Z,4.85
2018-04-07T04:25:34.194Z,4.84
2018-04-07T04:28:01.698Z,4.84
2018-04-07T04:30:29.210Z,4.83
2018-04-07T04:32:56.762Z,4.85
2018-04-07T04:35:24.257Z,4.86
2018-04-07T04:37:51.717Z,4.90
2018-04-07T04:40:19.209Z,4.92
2018-04-07T04:42:46.687Z,4.95
2018-04-07T04:45:14.143Z,4.99
2018-04-07T04:47:41.629Z,5.06
2018-04-07T04:50:09.169Z,5.13
2018-04-07T04:52:36.618Z,5.18
2018-04-07T04:55:04.179Z,5.24
2018-04-07T04:57:31.599Z,5.30
2018-04-07T04:59:59.110Z,5.33
2018-04-07T05:02:26.603Z,5.35
2018-04-07T05:04:54.067Z,5.39
2018-04-07T05:07:21.534Z,5.45
2018-04-07T05:09:49.034Z,5.55
2018-04-07T05:12:16.496Z,5.65
2018-04-07T05:14:43.947Z,5.74
2018-04-07T05:17:11.438Z,5.83
2018-04-07T05:19:38.914Z,5.89
2018-04-07T05:22:06.385Z,5.97
2018-04-07T05:24:33.874Z,6.02
2018-04-07T05:27:01.384Z,6.06
2018-04-07T05:29:28.860Z,6.11
2018-04-07T05:31:56.343Z,6.21
2018-04-07T05:34:23.846Z,6.25
2018-04-07T05:36:51.318Z,6.27
2018-04-07T05:39:18.809Z,6.31
2018-04-07T05:41:46.266Z,6.33
2018-04-07T05:44:13.783Z,6.42
2018-04-07T05:46:41.266Z,6.47
2018-04-07T05:49:08.730Z,6.60
2018-04-07T05:51:36.187Z,6.68
2018-04-07T05:54:03.762Z,6.73
2018-04-07T05:56:31.231Z,6.87
2018-04-07T05:58:58.690Z,6.96
2018-04-07T06:01:26.297Z,7.10
2018-04-07T06:03:53.820Z,7.18
2018-04-07T06:06:21.380Z,7.22
2018-04-07T06:08:48.926Z,7.35
2018-04-07T06:11:16.514Z,7.44
2018-04-07T06:13:43.967Z,7.45
2018-04-07T06:16:11.418Z,7.56
2018-04-07T06:18:38.916Z,7.65
2018-04-07T06:21:06.540Z,7.71
2018-04-07T06:23:33.998Z,7.83
2018-04-07T06:26:01.491Z,7.85
2018-04-07T06:28:28.950Z,7.97
2018-04-07T06:30:56.479Z,8.07
2018-04-07T06:33:23.955Z,8.07
2018-04-07T06:35:51.438Z,8.14
2018-04-07T06:38:18.894Z,8.14
2018-04-07T06:40:46.350Z,8.18
2018-04-07T06:43:13.829Z,8.13
2018-04-07T06:45:41.295Z,8.18
2018-04-07T06:48:08.812Z,8.21
2018-04-07T06:50:36.278Z,8.30
2018-04-07T06:53:03.766Z,8.46
2018-04-07T06:55:31.224Z,8.53
2018-04-07T06:57:58.722Z,8.47
2018-04-07T07:00:26.240Z,8.40
2018-04-07T07:02:53.694Z,8.48
2018-04-07T07:05:21.172Z,8.55
2018-04-07T07:07:48.634Z,8.67
2018-04-07T07:10:16.094Z,8.79
2018-04-07T07:12:43.608Z,8.98
2018-04-07T07:15:11.054Z,9.10
2018-04-07T07:17:38.516Z,9.23
2018-04-07T07:20:06.024Z,9.45
2018-04-07T07:22:33.483Z,9.39
2018-04-07T07:25:00.933Z,9.31
2018-04-07T07:27:28.420Z,9.36
2018-04-07T07:29:55.875Z,9.50
2018-04-07T07:32:23.330Z,9.58
2018-04-07T07:34:50.808Z,9.74
2018-04-07T07:37:18.263Z,9.85
2018-04-07T07:39:45.713Z,9.91
2018-04-07T07:42:13.312Z,10.06
2018-04-07T07:44:40.746Z,10.37
2018-04-07T07:47:08.210Z,10.51
2018-04-07T07:49:35.696Z,10.61
2018-04-07T07:52:03.178Z,10.59
2018-04-07T07:54:30.630Z,10.72
2018-04-07T07:56:58.110Z,10.93
2018-04-07T07:59:25.579Z,11.14
2018-04-07T08:01:53.041Z,11.09
2018-04-07T08:04:20.534Z,10.99
2018-04-07T08:06:48.054Z,10.98
2018-04-07T08:09:15.570Z,11.19
2018-04-07T08:11:43.052Z,11.28
2018-04-07T08:14:10.566Z,11.28
2018-04-07T08:16:38.052Z,11.37
2018-04-07T08:19:05.515Z,11.73
2018-04-07T08:21:32.998Z,11.91
2018-04-07T08:24:00.521Z,11.91
2018-04-07T08:26:28.032Z,11.80
2018-04-07T08:28:55.511Z,11.72
2018-04-07T08:31:22.977Z,11.95
2018-04-07T08:33:50.479Z,12.16
2018-04-07T08:36:17.937Z,12.34
2018-04-07T08:38:45.399Z,12.55
2018-04-07T08:41:13.198Z,12.76
2018-04-07T08:43:40.716Z,12.89
2018-04-07T08:46:08.281Z,13.00
2018-04-07T08:48:35.761Z,12.88
2018-04-07T08:51:03.244Z,12.93
2018-04-07T08:53:30.740Z,12.80
2018-04-07T08:55:58.254Z,12.68
2018-04-07T08:58:25.739Z,12.51
2018-04-07T09:00:53.274Z,12.56
2018-04-07T09:03:20.752Z,12.52
2018-04-07T09:05:48.238Z,12.55
2018-04-07T09:08:15.735Z,12.72
2018-04-07T09:10:43.203Z,12.92
2018-04-07T09:13:10.675Z,13.09
2018-04-07T09:15:38.166Z,13.35
2018-04-07T09:18:05.729Z,13.45
2018-04-07T09:20:33.207Z,13.40
2018-04-07T09:23:00.681Z,13.45
2018-04-07T09:25:28.134Z,13.65
2018-04-07T09:27:55.656Z,13.64
2018-04-07T09:30:23.121Z,13.73
2018-04-07T09:32:50.725Z,13.94
2018-04-07T09:35:18.191Z,14.22
2018-04-07T09:37:45.669Z,14.47
2018-04-07T09:40:13.171Z,14.57
2018-04-07T09:42:40.674Z,14.50
2018-04-07T09:45:08.126Z,14.37
2018-04-07T09:47:35.683Z,14.45
2018-04-07T09:50:03.137Z,14.61
2018-04-07T09:52:30.698Z,14.61
2018-04-07T09:54:58.252Z,14.87
2018-04-07T09:57:25.700Z,14.72
2018-04-07T09:59:53.154Z,14.68
2018-04-07T10:02:20.634Z,14.80
2018-04-07T10:04:48.138Z,14.92
2018-04-07T10:07:15.593Z,15.14
2018-04-07T10:09:43.091Z,15.33
2018-04-07T10:12:10.561Z,15.56
2018-04-07T10:14:38.017Z,15.73
2018-04-07T10:17:05.513Z,15.45
2018-04-07T10:19:32.986Z,15.23
2018-04-07T10:22:00.488Z,15.29
2018-04-07T10:24:27.979Z,15.31
2018-04-07T10:26:55.507Z,15.49
2018-04-07T10:29:22.965Z,15.82
2018-04-07T10:31:50.425Z,16.05
2018-04-07T10:34:17.916Z,15.81
2018-04-07T10:36:45.384Z,15.92
2018-04-07T10:39:12.854Z,16.06
2018-04-07T10:41:40.478Z,16.09
2018-04-07T10:44:07.955Z,16.09
2018-04-07T10:46:35.422Z,16.21
2018-04-07T10:49:02.927Z,16.25
2018-04-07T10:51:30.393Z,16.43
2018-04-07T10:53:57.929Z,16.51
2018-04-07T10:56:25.419Z,16.51
2018-04-07T10:58:52.875Z,16.37
2018-04-07T11:01:20.371Z,16.56
2018-04-07T11:03:47.842Z,16.65
2018-04-07T11:06:15.313Z,16.94
2018-04-07T11:08:42.794Z,17.07
2018-04-07T11:11:10.251Z,17.10
2018-04-07T11:13:37.746Z,16.86
2018-04-07T11:16:05.261Z,16.72
2018-04-07T11:18:33.093Z,16.66
2018-04-07T11:21:00.583Z,16.78
2018-04-07T11:23:28.078Z,16.95
2018-04-07T11:25:55.612Z,17.14
2018-04-07T11:28:23.067Z,17.24
2018-04-07T11:30:50.569Z,17.13
2018-04-07T11:33:18.027Z,17.15
2018-04-07T11:35:45.536Z,17.18
2018-04-07T11:38:13.057Z,17.46
2018-04-07T11:40:40.522Z,17.53
2018-04-07T11:43:07.989Z,17.62
2018-04-07T11:45:35.511Z,17.47
2018-04-07T11:48:03.017Z,17.57
2018-04-07T11:50:30.478Z,17.63
2018-04-07T11:52:58.084Z,17.74
2018-04-07T11:55:25.607Z,18.00
2018-04-07T11:57:53.204Z,18.13
2018-04-07T12:00:20.674Z,18.26
2018-04-07T12:02:48.179Z,18.34
2018-04-07T12:05:15.648Z,18.28
2018-04-07T12:07:43.106Z,18.41
2018-04-07T12:10:10.593Z,18.51
2018-04-07T12:12:38.150Z,18.48
2018-04-07T12:15:05.617Z,18.26
2018-04-07T12:17:33.120Z,18.18
2018-04-07T12:20:00.597Z,18.25
2018-04-07T12:22:29.039Z,18.49
2018-04-07T12:24:56.666Z,18.40
2018-04-07T12:27:24.121Z,18.40
2018-04-07T12:29:51.585Z,18.53
2018-04-07T12:32:19.082Z,18.55
2018-04-07T12:34:46.541Z,18.66
2018-04-07T12:37:13.994Z,18.71
2018-04-07T12:39:41.466Z,18.76
2018-04-07T12:42:08.923Z,18.74
2018-04-07T12:44:36.401Z,18.65
2018-04-07T12:47:03.947Z,18.59
2018-04-07T12:49:31.408Z,18.73
2018-04-07T12:51:58.864Z,18.84
2018-04-07T12:54:26.385Z,19.07
2018-04-07T12:56:53.912Z,19.08
2018-04-07T12:59:21.367Z,19.17
2018-04-07T13:01:48.850Z,19.22
2018-04-07T13:04:16.310Z,19.22
2018-04-07T13:06:43.772Z,19.21
2018-04-07T13:09:11.298Z,19.31
2018-04-07T13:11:38.821Z,19.38
2018-04-07T13:14:06.301Z,19.50
2018-04-07T13:16:33.790Z,19.58
2018-04-07T13:19:01.244Z,19.63
2018-04-07T13:21:28.712Z,19.79
2018-04-07T13:23:56.249Z,19.87
2018-04-07T13:26:23.706Z,19.79
2018-04-07T13:28:51.180Z,19.72
2018-04-07T13:31:18.690Z,19.77
2018-04-07T13:33:46.164Z,19.85
2018-04-07T13:36:13.624Z,19.88
2018-04-07T13:38:41.115Z,19.88
2018-04-07T13:41:08.582Z,19.89
2018-04-07T13:43:36.034Z,20.04
2018-04-07T13:46:03.518Z,19.87
2018-04-07T13:48:31.027Z,19.97
2018-04-07T13:50:58.522Z,20.21
2018-04-07T13:53:25.978Z,20.12
2018-04-07T13:55:53.442Z,20.12
2018-04-07T13:58:20.958Z,20.17
2018-04-07T14:00:48.418Z,20.19
2018-04-07T14:03:15.906Z,20.14
2018-04-07T14:05:43.457Z,20.22
2018-04-07T14:08:10.918Z,20.28
2018-04-07T14:10:38.410Z,20.43
2018-04-07T14:13:05.878Z,20.43
2018-04-07T14:15:33.394Z,20.43
2018-04-07T14:18:00.899Z,20.35
2018-04-07T14:20:28.382Z,20.40
2018-04-07T14:22:55.864Z,20.48
2018-04-07T14:25:23.747Z,20.63
2018-04-07T14:27:51.422Z,20.77
2018-04-07T14:30:19.502Z,20.84
2018-04-07T14:32:47.268Z,20.93
2018-04-07T14:35:14.803Z,20.88
2018-04-07T14:37:42.291Z,20.83
2018-04-07T14:40:09.767Z,20.84
2018-04-07T14:42:37.290Z,20.74
2018-04-07T14:45:04.749Z,20.70
2018-04-07T14:47:32.345Z,20.63
2018-04-07T14:49:59.833Z,20.53
2018-04-07T14:52:27.287Z,20.51
2018-04-07T14:54:55.044Z,20.54
2018-04-07T14:57:22.664Z,20.62
2018-04-07T14:59:50.145Z,20.65
2018-04-07T15:02:17.658Z,20.59
2018-04-07T15:04:45.215Z,20.72
2018-04-07T15:07:12.667Z,20.79
2018-04-07T15:09:40.165Z,20.81
2018-04-07T15:12:07.618Z,20.80
2018-04-07T15:14:35.073Z,20.76
2018-04-07T15:17:02.562Z,20.78
2018-04-07T15:19:30.115Z,20.74
2018-04-07T15:21:57.658Z,20.70
2018-04-07T15:24:25.142Z,20.66
2018-04-07T15:26:52.694Z,20.70
2018-04-07T15:29:20.196Z,20.69
2018-04-07T15:31:47.750Z,20.68
2018-04-07T15:34:15.240Z,20.72
2018-04-07T15:36:42.729Z,20.64
2018-04-07T15:39:10.180Z,20.62
2018-04-07T15:41:37.723Z,20.63
2018-04-07T15:44:06.091Z,20.63
2018-04-07T15:46:33.597Z,20.64
2018-04-07T15:49:01.082Z,21.18
2018-04-07T15:51:28.584Z,22.44
2018-04-07T15:53:56.032Z,23.34
2018-04-07T15:56:23.503Z,24.09
2018-04-07T15:58:51.005Z,24.33
2018-04-07T16:01:18.456Z,25.05
2018-04-07T16:03:45.950Z,24.60
2018-04-07T16:06:13.427Z,24.60
2018-04-07T16:08:40.990Z,24.66
2018-04-07T16:11:08.502Z,24.23
2018-04-07T16:13:36.209Z,23.93
2018-04-07T16:16:03.661Z,23.28
2018-04-07T16:18:31.225Z,23.11
2018-04-07T16:20:58.687Z,22.84
2018-04-07T16:23:26.242Z,22.65
2018-04-07T16:25:53.737Z,22.41
2018-04-07T16:28:21.216Z,22.34
2018-04-07T16:30:48.683Z,22.30
2018-04-07T16:33:16.173Z,22.48
2018-04-07T16:35:43.666Z,22.42
2018-04-07T16:38:11.139Z,22.09
2018-04-07T16:40:38.594Z,21.59
2018-04-07T16:43:06.173Z,21.44
2018-04-07T16:45:33.665Z,21.40
2018-04-07T16:48:01.133Z,21.39
2018-04-07T16:50:28.603Z,21.63
2018-04-07T16:52:56.105Z,20.98
2018-04-07T16:55:23.664Z,20.50
2018-04-07T16:57:51.114Z,20.08
2018-04-07T17:00:18.590Z,19.88
2018-04-07T17:02:46.484Z,19.77
2018-04-07T17:05:14.992Z,19.63
2018-04-07T17:07:42.482Z,19.60
2018-04-07T17:10:09.979Z,19.55
2018-04-07T17:12:37.456Z,19.50
2018-04-07T17:15:04.931Z,19.39
2018-04-07T17:17:32.469Z,19.34
2018-04-07T17:20:00.022Z,19.27
2018-04-07T17:22:27.472Z,19.26
2018-04-07T17:24:54.930Z,19.24
2018-04-07T17:27:22.447Z,19.16
2018-04-07T17:29:49.907Z,19.08
2018-04-07T17:32:17.374Z,18.99
2018-04-07T17:34:44.859Z,18.90
2018-04-07T17:37:12.418Z,18.82
2018-04-07T17:39:39.878Z,18.72
2018-04-07T17:42:07.422Z,18.59
2018-04-07T17:44:34.965Z,18.49
2018-04-07T17:47:02.498Z,18.34
2018-04-07T17:49:29.982Z,18.18
2018-04-07T17:51:57.574Z,18.10
2018-04-07T17:54:25.034Z,18.00
2018-04-07T17:56:52.526Z,17.90
2018-04-07T17:59:20.004Z,17.82
2018-04-07T18:01:47.470Z,17.72
2018-04-07T18:04:14.945Z,17.61
2018-04-07T18:06:42.440Z,17.54
2018-04-07T18:09:09.899Z,17.43
2018-04-07T18:11:37.428Z,17.35
2018-04-07T18:14:04.866Z,17.27
2018-04-07T18:16:32.318Z,17.22
2018-04-07T18:18:59.872Z,17.18
2018-04-07T18:21:27.325Z,17.15
2018-04-07T18:23:54.877Z,17.10
2018-04-07T18:26:22.358Z,17.03
2018-04-07T18:28:49.906Z,16.93
2018-04-07T18:31:17.368Z,16.86
2018-04-07T18:33:44.864Z,16.81
2018-04-07T18:36:12.416Z,16.73
2018-04-07T18:38:39.891Z,16.65
2018-04-07T18:41:07.578Z,16.61
2018-04-07T18:43:35.031Z,16.58
2018-04-07T18:46:02.554Z,16.55
2018-04-07T18:48:30.120Z,16.50
2018-04-07T18:50:57.595Z,16.46
2018-04-07T18:53:25.087Z,16.40
2018-04-07T18:55:52.579Z,16.36
2018-04-07T18:58:20.053Z,16.31
2018-04-07T19:00:47.525Z,16.26
2018-04-07T19:03:15.300Z,16.21
2018-04-07T19:05:42.885Z,16.19
2018-04-07T19:08:10.338Z,16.14
2018-04-07T19:10:37.836Z,16.10
2018-04-07T19:13:05.330Z,16.04
2018-04-07T19:15:32.792Z,15.99
2018-04-07T19:18:00.245Z,15.96
2018-04-07T19:20:27.739Z,15.89
2018-04-07T19:22:55.198Z,15.85
2018-04-07T19:25:22.680Z,15.83
2018-04-07T19:27:50.198Z,15.81
2018-04-07T19:30:17.674Z,15.76
2018-04-07T19:32:45.257Z,15.73
2018-04-07T19:35:12.738Z,15.64
2018-04-07T19:37:40.274Z,15.65
2018-04-07T19:40:07.833Z,15.61
2018-04-07T19:42:35.697Z,15.58
2018-04-07T19:45:03.170Z,15.58
2018-04-07T19:47:30.653Z,15.56
2018-04-07T19:49:58.150Z,15.49
2018-04-07T19:52:25.611Z,15.44
2018-04-07T19:54:53.078Z,15.39
2018-04-07T19:57:20.575Z,15.33
2018-04-07T19:59:48.047Z,15.27
2018-04-07T20:02:15.614Z,15.21
2018-04-07T20:04:43.082Z,15.14
2018-04-07T20:07:10.639Z,15.09
2018-04-07T20:09:38.227Z,15.06
2018-04-07T20:12:05.706Z,15.05
2018-04-07T20:14:33.218Z,14.99
2018-04-07T20:17:00.709Z,14.96
2018-04-07T20:19:28.330Z,14.90
2018-04-07T20:21:55.937Z,14.82
2018-04-07T20:24:23.497Z,14.78
2018-04-07T20:26:51.047Z,14.73
2018-04-07T20:29:18.518Z,14.64
2018-04-07T20:31:45.987Z,14.61
2018-04-07T20:34:13.486Z,14.56
2018-04-07T20:36:40.957Z,14.51
2018-04-07T20:39:08.446Z,14.47
2018-04-07T20:41:35.936Z,14.42
2018-04-07T20:44:03.430Z,14.37
2018-04-07T20:46:30.898Z,14.34
2018-04-07T20:48:58.481Z,14.32
2018-04-07T20:51:26.002Z,14.28
2018-04-07T20:53:53.567Z,14.22
2018-04-07T20:56:21.066Z,14.21
2018-04-07T20:58:48.582Z,14.18
2018-04-07T21:01:16.137Z,14.19
2018-04-07T21:03:43.608Z,14.21
2018-04-07T21:06:11.091Z,14.16
2018-04-07T21:08:38.566Z,14.13
2018-04-07T21:11:06.039Z,14.13
2018-04-07T21:13:33.518Z,14.13
2018-04-07T21:16:01.024Z,14.12
2018-04-07T21:18:28.491Z,14.09
2018-04-07T21:20:55.975Z,14.09
2018-04-07T21:23:23.440Z,14.07
2018-04-07T21:25:51.012Z,14.02
2018-04-07T21:28:18.591Z,14.00
2018-04-07T21:30:46.133Z,13.99
2018-04-07T21:33:13.617Z,13.98
2018-04-07T21:35:41.211Z,13.96
2018-04-07T21:38:08.706Z,13.92
2018-04-07T21:40:36.266Z,13.91
2018-04-07T21:43:03.726Z,13.87
2018-04-07T21:45:31.206Z,13.83
2018-04-07T21:47:58.694Z,13.80
2018-04-07T21:50:26.228Z,13.81
2018-04-07T21:52:53.801Z,13.77
2018-04-07T21:55:21.306Z,13.75
2018-04-07T21:57:48.813Z,13.73
2018-04-07T22:00:16.277Z,13.71
2018-04-07T22:02:43.787Z,13.70
2018-04-07T22:05:11.286Z,13.67
2018-04-07T22:07:38.810Z,13.65
2018-04-07T22:10:06.295Z,13.61
2018-04-07T22:12:33.768Z,13.59
2018-04-07T22:15:01.239Z,13.57
2018-04-07T22:17:28.738Z,13.54
2018-04-07T22:19:56.289Z,13.56
2018-04-07T22:22:23.794Z,13.56
2018-04-07T22:24:51.316Z,13.56
2018-04-07T22:27:18.807Z,13.55
2018-04-07T22:29:46.301Z,13.63
2018-04-07T22:32:13.887Z,13.62
2018-04-07T22:34:41.358Z,13.66
2018-04-07T22:37:08.838Z,13.78
2018-04-07T22:39:36.297Z,13.77
2018-04-07T22:42:03.778Z,13.77
2018-04-07T22:44:31.278Z,13.75
2018-04-07T22:46:58.738Z,13.75
2018-04-07T22:49:26.257Z,13.78
2018-04-07T22:51:53.712Z,13.72
2018-04-07T22:54:21.186Z,13.70
2018-04-07T22:56:48.702Z,13.63
2018-04-07T22:59:16.262Z,13.57
2018-04-07T23:01:43.723Z,13.52
2018-04-07T23:04:11.238Z,13.46
2018-04-07T23:06:38.792Z,13.42
2018-04-07T23:09:06.254Z,13.38
2018-04-07T23:11:33.814Z,13.36
2018-04-07T23:14:01.284Z,13.35
2018-04-07T23:16:28.770Z,13.36
2018-04-07T23:18:56.244Z,13.43
2018-04-07T23:21:23.770Z,13.46
2018-04-07T23:23:51.234Z,13.44
2018-04-07T23:26:18.723Z,13.43
2018-04-07T23:28:46.260Z,13.36
2018-04-07T23:31:13.759Z,13.33
2018-04-07T23:33:41.219Z,13.27
2018-04-07T23:36:08.718Z,13.20
2018-04-07T23:38:36.206Z,13.13
2018-04-07T23:41:03.751Z,13.06
2018-04-07T23:43:31.220Z,13.02
2018-04-07T23:45:58.710Z,13.03
2018-04-07T23:48:26.171Z,13.01
2018-04-07T23:50:53.682Z,13.01
2018-04-07T23:53:21.209Z,12.97
2018-04-07T23:55:48.669Z,12.96
2018-04-07T23:58:16.133Z,12.97
